Time;durP1;ratioP1;P1;durP2;ratioP2;P2;SDS_P1;SDS_P2;PMS_P1;PMS_P2;Temp;Humidity;BMP_temperature;BMP_pressure;BME280_temperature;BME280_humidity;BME280_pressure;Samples;Min_cycle;Max_cycle;Signal;HPM_P1;HPM_P2
2023/07/29 00:01:35;;;;;;;56.13;50.53;;;;;;;17.55;100.00;100292.31;5027841;28;20569;-80
2023/07/29 00:04:05;;;;;;;48.77;43.53;;;;;;;17.60;100.00;100287.75;5042787;28;20403;-81
2023/07/29 00:06:34;;;;;;;16.47;14.70;;;;;;;17.52;100.00;100285.47;5029772;28;20435;-81
2023/07/29 00:09:04;;;;;;;12.63;11.40;;;;;;;17.41;100.00;100283.72;5026381;28;20460;-80
2023/07/29 00:11:34;;;;;;;15.63;12.43;;;;;;;17.34;100.00;100283.13;5047336;28;20483;-80
2023/07/29 00:14:04;;;;;;;14.40;13.00;;;;;;;17.29;100.00;100272.97;5052533;28;20413;-80
2023/07/29 00:16:33;;;;;;;13.97;12.67;;;;;;;17.26;100.00;100283.59;5043178;28;20463;-81
2023/07/29 00:19:04;;;;;;;14.90;13.40;;;;;;;17.22;100.00;100275.09;5038548;28;20432;-81
2023/07/29 00:21:34;;;;;;;15.43;13.70;;;;;;;17.19;100.00;100274.78;5041852;28;20462;-80
2023/07/29 00:24:03;;;;;;;16.87;15.17;;;;;;;17.17;100.00;100276.97;5023169;28;20411;-80
2023/07/29 00:26:34;;;;;;;15.50;13.97;;;;;;;17.18;100.00;100274.00;5049081;28;20501;-80
2023/07/29 00:29:03;;;;;;;17.87;14.90;;;;;;;17.17;100.00;100271.50;5035807;28;20446;-80
2023/07/29 00:31:33;;;;;;;15.03;13.53;;;;;;;17.20;100.00;100276.44;5051826;28;20542;-81
2023/07/29 00:34:02;;;;;;;15.67;14.17;;;;;;;17.21;100.00;100272.63;5024077;28;20432;-81
2023/07/29 00:36:31;;;;;;;15.73;14.23;;;;;;;17.18;100.00;100267.69;5026694;28;20450;-83
2023/07/29 00:39:00;;;;;;;16.00;14.30;;;;;;;17.15;100.00;100268.19;5043039;28;20411;-82
2023/07/29 00:41:29;;;;;;;17.03;14.50;;;;;;;17.13;100.00;100268.47;5039641;28;20729;-81
2023/07/29 00:44:00;;;;;;;16.57;14.87;;;;;;;17.17;100.00;100269.59;5043129;28;20406;-82
2023/07/29 00:46:32;;;;;;;15.50;14.00;;;;;;;17.15;100.00;100273.66;5044549;28;20494;-81
2023/07/29 00:49:02;;;;;;;16.87;14.90;;;;;;;17.14;100.00;100272.00;5021851;28;20440;-81
2023/07/29 00:51:31;;;;;;;15.73;14.07;;;;;;;17.15;100.00;100270.94;5040840;28;20533;-80
2023/07/29 00:54:01;;;;;;;14.77;13.37;;;;;;;17.15;100.00;100279.13;5023065;28;20410;-81
2023/07/29 00:56:31;;;;;;;16.00;14.30;;;;;;;17.13;100.00;100276.69;5044842;28;20440;-81
2023/07/29 00:59:04;;;;;;;16.00;14.50;;;;;;;17.08;100.00;100270.34;5025372;28;20407;-81
2023/07/29 01:01:33;;;;;;;17.43;14.67;;;;;;;17.03;100.00;100273.03;5035526;28;20431;-80
2023/07/29 01:04:02;;;;;;;16.87;15.07;;;;;;;16.98;100.00;100262.88;5041594;28;20788;-81
2023/07/29 01:06:42;;;;;;;16.53;14.80;;;;;;;17.02;100.00;100264.00;5040668;28;20417;-81
2023/07/29 01:09:23;;;;;;;22.47;16.27;;;;;;;17.06;100.00;100256.09;5034245;28;20428;-81
2023/07/29 01:12:02;;;;;;;18.57;15.63;;;;;;;17.08;100.00;100253.94;5042115;28;20445;-81
2023/07/29 01:14:42;;;;;;;17.63;15.60;;;;;;;17.01;100.00;100250.56;5034403;28;20475;-81
2023/07/29 01:17:24;;;;;;;15.97;14.47;;;;;;;16.94;100.00;100246.13;5045485;28;20424;-80
2023/07/29 01:20:07;;;;;;;16.97;15.10;;;;;;;16.98;100.00;100248.38;5034141;28;20451;-82
2023/07/29 01:22:38;;;;;;;20.03;14.47;;;;;;;16.93;100.00;100243.69;5027714;28;20483;-80
2023/07/29 01:25:09;;;;;;;16.60;15.00;;;;;;;16.90;100.00;100239.53;5047856;28;20417;-81
2023/07/29 01:27:38;;;;;;;15.87;14.27;;;;;;;16.93;100.00;100233.59;5032763;28;20414;-81
2023/07/29 01:30:09;;;;;;;16.90;15.10;;;;;;;16.85;100.00;100234.03;5046300;28;20411;-80
2023/07/29 01:32:44;;;;;;;17.13;14.63;;;;;;;16.79;100.00;100235.09;5029336;28;20478;-81
2023/07/29 01:35:23;;;;;;;18.27;15.10;;;;;;;16.78;100.00;100232.63;5048178;28;20447;-82
2023/07/29 01:37:56;;;;;;;16.87;15.27;;;;;;;16.73;100.00;100225.19;5056220;28;20406;-80
2023/07/29 01:40:29;;;;;;;16.80;15.07;;;;;;;16.70;100.00;100233.88;5033744;28;20422;-81
2023/07/29 01:42:58;;;;;;;17.47;15.67;;;;;;;16.71;100.00;100235.53;5022711;28;20455;-81
2023/07/29 01:45:27;;;;;;;15.77;14.17;;;;;;;16.74;100.00;100237.78;5021094;28;20419;-81
2023/07/29 01:47:56;;;;;;;16.97;15.23;;;;;;;16.68;100.00;100240.69;5024604;28;20440;-81
2023/07/29 01:50:26;;;;;;;17.13;15.43;;;;;;;16.71;100.00;100246.47;5033936;28;20441;-80
2023/07/29 01:52:55;;;;;;;16.93;15.23;;;;;;;16.76;100.00;100249.25;5039920;28;20432;-80
2023/07/29 01:55:24;;;;;;;18.03;16.10;;;;;;;16.78;100.00;100252.56;5037984;28;20414;-81
2023/07/29 01:57:54;;;;;;;18.23;15.57;;;;;;;16.69;100.00;100243.19;5051149;28;20410;-80
2023/07/29 02:00:25;;;;;;;16.47;14.80;;;;;;;16.65;100.00;100247.53;5025565;28;20468;-80
2023/07/29 02:02:54;;;;;;;17.83;16.13;;;;;;;16.71;100.00;100251.94;5023949;28;20437;-80
2023/07/29 02:05:24;;;;;;;18.40;15.60;;;;;;;16.68;100.00;100247.00;5044781;28;20505;-81
2023/07/29 02:07:53;;;;;;;15.83;14.23;;;;;;;16.68;100.00;100252.47;5026023;28;20429;-80
2023/07/29 02:10:22;;;;;;;18.00;16.13;;;;;;;16.63;100.00;100249.66;5042579;28;20778;-80
2023/07/29 02:12:51;;;;;;;16.60;15.03;;;;;;;16.59;100.00;100242.25;5037350;28;20783;-81
2023/07/29 02:15:22;;;;;;;18.80;16.90;;;;;;;16.57;100.00;100238.91;5026477;28;20425;-81
2023/07/29 02:17:52;;;;;;;17.23;15.47;;;;;;;16.53;100.00;100235.88;5042942;28;20959;-80
2023/07/29 02:20:22;;;;;;;18.37;16.50;;;;;;;16.57;100.00;100237.00;5045101;28;20458;-80
2023/07/29 02:22:52;;;;;;;18.60;14.80;;;;;;;16.64;100.00;100234.13;5025635;28;20838;-80
2023/07/29 02:25:22;;;;;;;18.00;15.73;;;;;;;16.62;100.00;100239.81;5025123;28;20426;-80
2023/07/29 02:27:51;;;;;;;18.93;16.20;;;;;;;16.64;100.00;100243.13;5026830;28;20414;-80
2023/07/29 02:30:22;;;;;;;17.03;15.00;;;;;;;16.60;100.00;100247.47;5021883;28;20439;-80
2023/07/29 02:32:51;;;;;;;16.23;14.40;;;;;;;16.63;100.00;100248.84;5025423;28;20442;-79
2023/07/29 02:35:20;;;;;;;15.73;14.20;;;;;;;16.65;100.00;100253.00;5024510;28;20428;-79
2023/07/29 02:37:50;;;;;;;21.30;14.93;;;;;;;16.56;100.00;100253.63;5030228;28;20438;-80
2023/07/29 02:40:22;;;;;;;16.67;14.97;;;;;;;16.52;100.00;100250.59;5045584;28;20888;-79
2023/07/29 02:42:52;;;;;;;17.30;15.50;;;;;;;16.54;100.00;100248.47;5021578;28;20427;-80
2023/07/29 02:45:22;;;;;;;16.00;14.40;;;;;;;16.52;100.00;100242.41;5022578;28;20418;-81
2023/07/29 02:47:51;;;;;;;16.97;15.20;;;;;;;16.50;100.00;100245.44;5021889;28;20456;-81
2023/07/29 02:50:21;;;;;;;18.93;16.93;;;;;;;16.50;100.00;100250.06;5041903;28;20439;-80
2023/07/29 02:52:50;;;;;;;17.30;15.47;;;;;;;16.61;100.00;100243.63;5023579;28;20450;-81
2023/07/29 02:55:19;;;;;;;17.83;15.90;;;;;;;16.69;100.00;100248.66;5045272;28;20868;-81
2023/07/29 02:57:48;;;;;;;14.60;13.20;;;;;;;16.64;100.00;100245.88;5041817;28;20417;-81
2023/07/29 03:00:18;;;;;;;15.63;14.20;;;;;;;16.61;100.00;100246.38;5033083;28;20407;-81
2023/07/29 03:02:48;;;;;;;18.20;15.60;;;;;;;16.50;100.00;100239.97;5026167;28;20763;-82
2023/07/29 03:05:18;;;;;;;17.80;15.77;;;;;;;16.43;100.00;100249.41;5028704;28;20446;-80
2023/07/29 03:07:47;;;;;;;14.93;13.43;;;;;;;16.32;100.00;100243.00;5022847;28;20531;-80
2023/07/29 03:10:16;;;;;;;14.83;13.37;;;;;;;16.37;100.00;100244.97;5022616;28;20949;-80
2023/07/29 03:12:45;;;;;;;14.77;13.37;;;;;;;16.25;100.00;100236.09;5026240;28;20486;-80
2023/07/29 03:15:15;;;;;;;16.20;14.60;;;;;;;16.25;100.00;100241.56;5026536;28;20422;-81
2023/07/29 03:17:44;;;;;;;16.43;14.90;;;;;;;16.31;100.00;100246.00;5039850;28;20424;-81
2023/07/29 03:20:15;;;;;;;16.43;14.93;;;;;;;16.24;100.00;100239.91;5040552;28;20403;-80
2023/07/29 03:22:44;;;;;;;16.40;14.63;;;;;;;16.26;100.00;100237.75;5029581;28;20487;-80
2023/07/29 03:25:14;;;;;;;16.77;15.17;;;;;;;16.30;100.00;100236.16;5034498;28;20494;-80
2023/07/29 03:27:43;;;;;;;18.30;16.43;;;;;;;16.34;100.00;100240.03;5046593;28;20402;-81
2023/07/29 03:30:13;;;;;;;17.30;15.43;;;;;;;16.38;100.00;100241.16;5047522;28;20456;-80
2023/07/29 03:32:46;;;;;;;19.70;17.60;;;;;;;16.47;100.00;100234.16;5045813;28;20438;-80
2023/07/29 03:35:17;;;;;;;18.43;16.53;;;;;;;16.48;100.00;100235.81;5027568;28;20419;-80
2023/07/29 03:37:47;;;;;;;18.97;17.00;;;;;;;16.46;100.00;100235.25;5033028;28;20442;-80
2023/07/29 03:40:16;;;;;;;19.27;17.37;;;;;;;16.47;100.00;100239.63;5026350;28;20445;-80
2023/07/29 03:42:47;;;;;;;19.43;17.53;;;;;;;16.50;100.00;100225.47;5028915;28;20509;-81
2023/07/29 03:45:16;;;;;;;18.77;16.87;;;;;;;16.60;100.00;100233.81;5026306;28;20913;-81
2023/07/29 03:47:45;;;;;;;18.83;16.90;;;;;;;16.65;100.00;100222.09;5028758;28;21001;-82
2023/07/29 03:50:16;;;;;;;18.77;16.90;;;;;;;16.75;100.00;100227.66;5029074;28;20411;-82
2023/07/29 03:52:45;;;;;;;20.03;18.03;;;;;;;17.37;100.00;100233.38;5049862;28;20478;-81
2023/07/29 03:55:15;;;;;;;19.10;17.20;;;;;;;18.01;100.00;100225.03;5042311;28;20438;-81
2023/07/29 03:57:44;;;;;;;19.03;16.97;;;;;;;18.33;100.00;100220.22;5024417;28;20414;-81
2023/07/29 04:00:13;;;;;;;18.10;15.00;;;;;;;18.62;100.00;100217.84;5043591;28;20463;-81
2023/07/29 04:02:48;;;;;;;16.37;14.60;;;;;;;18.71;100.00;100226.34;5034261;28;20443;-81
2023/07/29 04:05:20;;;;;;;19.30;15.70;;;;;;;18.72;100.00;100233.50;5032084;28;20414;-81
2023/07/29 04:07:49;;;;;;;15.70;14.33;;;;;;;18.40;100.00;100228.16;5025659;28;20479;-81
2023/07/29 04:10:18;;;;;;;14.03;12.73;;;;;;;18.15;100.00;100231.66;5043420;28;20432;-81
2023/07/29 04:12:48;;;;;;;16.10;14.60;;;;;;;17.99;100.00;100229.94;5026076;28;20445;-81
2023/07/29 04:15:17;;;;;;;18.80;14.23;;;;;;;17.93;100.00;100223.63;5025354;28;20647;-80
2023/07/29 04:17:46;;;;;;;14.63;13.20;;;;;;;18.44;100.00;100221.91;5041523;28;20406;-82
2023/07/29 04:20:16;;;;;;;15.30;13.83;;;;;;;19.22;100.00;100217.03;5043408;28;20932;-80
2023/07/29 04:22:46;;;;;;;14.80;13.27;;;;;;;19.07;100.00;100217.88;5026112;28;20448;-79
2023/07/29 04:25:16;;;;;;;13.37;12.27;;;;;;;19.20;100.00;100224.75;5042833;28;20540;-80
2023/07/29 04:27:45;;;;;;;13.57;12.17;;;;;;;19.26;100.00;100218.16;5027254;28;20502;-81
2023/07/29 04:30:14;;;;;;;13.03;11.80;;;;;;;19.74;100.00;100214.00;5033259;28;20414;-81
2023/07/29 04:32:44;;;;;;;13.40;12.30;;;;;;;21.13;100.00;100222.88;5026396;28;20895;-81
2023/07/29 04:35:14;;;;;;;12.00;10.90;;;;;;;22.71;96.19;100225.50;5042248;28;20432;-80
2023/07/29 04:37:44;;;;;;;13.00;11.73;;;;;;;23.17;87.77;100220.09;5042493;28;20417;-80
2023/07/29 04:40:14;;;;;;;12.30;11.20;;;;;;;24.09;80.85;100235.78;5062088;28;20433;-81
2023/07/29 04:42:44;;;;;;;16.00;9.70;;;;;;;24.97;75.18;100239.97;5040299;28;20475;-80
2023/07/29 04:45:13;;;;;;;9.87;8.97;;;;;;;25.03;73.99;100241.47;5055483;28;20391;-80
2023/07/29 04:47:43;;;;;;;10.73;9.80;;;;;;;25.19;73.66;100242.75;5049646;28;20424;-80
2023/07/29 04:50:12;;;;;;;9.80;9.00;;;;;;;25.54;71.13;100243.78;5049668;28;20468;-81
2023/07/29 04:52:41;;;;;;;9.40;8.60;;;;;;;24.94;72.89;100251.66;5050061;28;20525;-81
2023/07/29 04:55:10;;;;;;;16.83;10.27;;;;;;;23.68;78.25;100244.03;5053119;28;20428;-81
2023/07/29 04:57:41;;;;;;;10.40;9.40;;;;;;;23.73;78.26;100242.00;5032307;28;20454;-78
2023/07/29 05:00:11;;;;;;;10.20;9.00;;;;;;;24.30;76.03;100242.59;5033501;28;20421;-80
2023/07/29 05:02:40;;;;;;;9.47;8.57;;;;;;;24.81;73.14;100235.91;5050760;28;20501;-81
2023/07/29 05:05:10;;;;;;;9.60;8.70;;;;;;;25.11;71.08;100235.19;5050273;28;20430;-82
2023/07/29 05:07:39;;;;;;;8.77;8.03;;;;;;;25.69;68.94;100245.38;5028477;28;20440;-80
2023/07/29 05:10:09;;;;;;;10.03;9.13;;;;;;;25.16;70.75;100239.78;5029320;28;20448;-81
2023/07/29 05:12:40;;;;;;;9.97;8.93;;;;;;;25.28;70.51;100237.25;5051186;28;20464;-81
2023/07/29 05:15:10;;;;;;;12.40;9.77;;;;;;;26.19;66.99;100243.13;5053676;28;20440;-81
2023/07/29 05:17:40;;;;;;;10.73;7.70;;;;;;;26.75;64.36;100233.97;5051426;28;20436;-81
2023/07/29 05:20:10;;;;;;;9.10;8.30;;;;;;;26.36;64.62;100235.69;5049629;28;20423;-81
2023/07/29 05:22:39;;;;;;;8.47;7.77;;;;;;;26.49;64.68;100224.78;5045698;28;20452;-81
2023/07/29 05:25:09;;;;;;;7.67;6.97;;;;;;;27.21;62.05;100225.78;5028364;28;20443;-81
2023/07/29 05:27:40;;;;;;;11.97;8.77;;;;;;;27.51;60.86;100229.53;5049186;28;20432;-81
2023/07/29 05:30:10;;;;;;;8.57;7.83;;;;;;;27.85;58.02;100219.44;5051796;28;20442;-81
2023/07/29 05:32:39;;;;;;;9.80;8.90;;;;;;;27.25;60.77;100228.75;5028111;28;20471;-82
2023/07/29 05:35:10;;;;;;;12.73;11.53;;;;;;;26.16;64.19;100235.44;5042673;28;20427;-82
2023/07/29 05:37:40;;;;;;;13.13;8.60;;;;;;;24.92;69.68;100226.25;5031722;28;20511;-81
2023/07/29 05:40:10;;;;;;;9.57;8.87;;;;;;;23.69;77.68;100224.41;5030708;28;20447;-82
2023/07/29 05:42:42;;;;;;;9.00;8.17;;;;;;;23.24;79.89;100226.00;5025737;28;20562;-82
2023/07/29 05:45:12;;;;;;;10.77;9.80;;;;;;;22.63;83.04;100226.13;5026848;28;20454;-82
2023/07/29 05:47:41;;;;;;;9.83;8.93;;;;;;;22.13;86.42;100226.81;5040777;28;20923;-81
2023/07/29 05:50:11;;;;;;;9.00;8.30;;;;;;;22.01;88.43;100225.31;5057355;28;20420;-82
2023/07/29 05:52:40;;;;;;;10.33;9.47;;;;;;;21.67;90.50;100225.41;5039914;28;20448;-83
2023/07/29 05:55:10;;;;;;;10.40;9.60;;;;;;;21.55;91.47;100229.63;5043793;28;20399;-81
2023/07/29 05:57:41;;;;;;;9.60;8.87;;;;;;;21.54;92.35;100234.31;5043945;28;20425;-80
2023/07/29 06:00:13;;;;;;;9.60;8.80;;;;;;;21.46;94.81;100226.69;5048127;28;20440;-81
2023/07/29 06:02:42;;;;;;;10.23;9.30;;;;;;;21.48;94.08;100210.72;5042462;28;20448;-81
2023/07/29 06:05:17;;;;;;;11.07;10.00;;;;;;;21.36;94.72;100210.28;5025224;28;20439;-81
2023/07/29 06:07:47;;;;;;;10.37;9.37;;;;;;;21.47;94.50;100202.75;5040968;28;20403;-81
2023/07/29 06:10:18;;;;;;;10.50;9.60;;;;;;;21.44;94.42;100192.34;5041347;28;20911;-81
2023/07/29 06:12:49;;;;;;;9.43;8.53;;;;;;;21.43;95.43;100188.75;5022090;28;20468;-81
2023/07/29 06:15:21;;;;;;;11.60;9.83;;;;;;;21.46;95.83;100190.09;5023080;28;20797;-80
2023/07/29 06:17:51;;;;;;;10.63;9.83;;;;;;;21.59;94.40;100172.91;5039507;28;20407;-81
2023/07/29 06:20:23;;;;;;;9.97;9.17;;;;;;;21.69;94.12;100184.59;5042298;28;20442;-80
2023/07/29 06:22:53;;;;;;;11.23;10.00;;;;;;;21.66;93.58;100181.63;5021579;28;20471;-81
2023/07/29 06:25:22;;;;;;;9.90;8.90;;;;;;;21.78;93.89;100186.72;5023908;28;20444;-80
2023/07/29 06:27:53;;;;;;;9.33;8.53;;;;;;;21.99;92.83;100188.97;5040366;28;20913;-81
2023/07/29 06:30:22;;;;;;;8.83;8.13;;;;;;;22.09;91.76;100197.09;5026635;28;20799;-81
2023/07/29 06:32:51;;;;;;;8.67;7.97;;;;;;;22.38;88.63;100196.16;5042581;28;20428;-82
2023/07/29 06:35:21;;;;;;;8.40;7.80;;;;;;;22.10;89.96;100195.16;5039723;28;20428;-80
2023/07/29 06:37:52;;;;;;;10.77;8.23;;;;;;;22.29;89.22;100192.44;5041464;28;20415;-81
2023/07/29 06:40:21;;;;;;;9.33;8.53;;;;;;;22.34;90.32;100192.38;5046007;28;20458;-81
2023/07/29 06:42:53;;;;;;;8.97;8.07;;;;;;;22.65;89.20;100201.84;5044264;28;20459;-82
2023/07/29 06:45:22;;;;;;;9.30;8.50;;;;;;;22.88;86.75;100203.72;5040002;28;20427;-82
2023/07/29 06:47:51;;;;;;;7.43;6.73;;;;;;;23.16;85.06;100206.56;5044572;28;20465;-81
2023/07/29 06:50:21;;;;;;;8.40;7.60;;;;;;;23.14;83.76;100203.31;5040593;28;20466;-81
2023/07/29 06:52:50;;;;;;;8.00;7.37;;;;;;;23.27;84.10;100203.34;5046484;28;20508;-81
2023/07/29 06:55:19;;;;;;;8.60;7.80;;;;;;;23.36;83.60;100200.69;5039864;28;20441;-80
2023/07/29 06:57:48;;;;;;;10.50;8.73;;;;;;;23.53;82.39;100203.72;5042765;28;20785;-80
2023/07/29 07:00:22;;;;;;;7.70;7.00;;;;;;;23.79;81.35;100210.41;5039795;28;20466;-80
2023/07/29 07:02:51;;;;;;;8.83;8.10;;;;;;;24.27;79.47;100225.75;5046342;28;20435;-81
2023/07/29 07:05:20;;;;;;;8.13;7.43;;;;;;;24.30;76.94;100214.94;5051005;28;20816;-80
2023/07/29 07:07:50;;;;;;;9.97;8.97;;;;;;;24.38;76.84;100211.44;5050021;28;20443;-81
2023/07/29 07:10:19;;;;;;;8.30;7.70;;;;;;;24.70;75.47;100218.72;5039850;28;20751;-81
2023/07/29 07:12:48;;;;;;;8.07;7.33;;;;;;;24.95;74.25;100223.69;5040033;28;20828;-81
2023/07/29 07:15:18;;;;;;;8.07;7.37;;;;;;;25.06;73.55;100215.94;5042602;28;20494;-80
2023/07/29 07:17:48;;;;;;;6.60;5.43;;;;;;;25.00;74.09;100229.09;5044811;28;20459;-81
2023/07/29 07:20:18;;;;;;;9.50;8.57;;;;;;;24.91;73.75;100230.16;5024490;28;20456;-80
2023/07/29 07:22:48;;;;;;;9.00;8.23;;;;;;;24.64;75.54;100228.28;5048689;28;20487;-80
2023/07/29 07:25:17;;;;;;;9.93;9.13;;;;;;;24.06;77.58;100226.16;5049558;28;20511;-81
2023/07/29 07:27:46;;;;;;;10.77;9.67;;;;;;;23.71;80.20;100219.41;5053232;28;20451;-80
2023/07/29 07:30:15;;;;;;;9.47;8.67;;;;;;;23.68;81.54;100220.00;5049320;28;20420;-81
2023/07/29 07:32:45;;;;;;;9.67;8.97;;;;;;;23.69;81.32;100221.66;5053779;28;20482;-81
2023/07/29 07:35:15;;;;;;;10.70;9.90;;;;;;;23.47;82.23;100218.75;5058181;28;20451;-80
2023/07/29 07:37:44;;;;;;;9.97;9.17;;;;;;;23.86;81.55;100212.78;5040722;28;20411;-81
2023/07/29 07:40:16;;;;;;;9.43;8.50;;;;;;;24.33;79.27;100219.84;5036696;28;20428;-81
2023/07/29 07:42:46;;;;;;;10.87;9.80;;;;;;;24.32;78.61;100206.31;5035525;28;20460;-80
2023/07/29 07:45:15;;;;;;;9.90;9.20;;;;;;;24.69;76.69;100211.53;5021772;28;20793;-80
2023/07/29 07:47:44;;;;;;;10.77;8.80;;;;;;;24.59;76.39;100200.72;5037142;28;20428;-80
2023/07/29 07:50:15;;;;;;;10.93;10.03;;;;;;;24.64;76.67;100201.41;5043559;28;20509;-80
2023/07/29 07:52:44;;;;;;;9.27;8.67;;;;;;;25.18;75.43;100191.25;5034461;28;20456;-81
2023/07/29 07:55:13;;;;;;;10.60;9.70;;;;;;;25.37;73.07;100196.59;5046558;28;20762;-80
2023/07/29 07:57:42;;;;;;;10.40;9.70;;;;;;;25.15;73.10;100186.38;5022913;28;20440;-80
2023/07/29 08:00:12;;;;;;;10.07;9.30;;;;;;;25.06;73.75;100188.28;5039213;28;20965;-80
2023/07/29 08:02:41;;;;;;;10.93;10.13;;;;;;;25.34;72.53;100186.16;5039361;28;20452;-81
2023/07/29 08:05:10;;;;;;;10.60;9.80;;;;;;;25.61;72.03;100193.50;5040811;28;20415;-79
2023/07/29 08:07:41;;;;;;;11.60;10.80;;;;;;;25.52;71.14;100191.47;5033434;28;20508;-81
2023/07/29 08:10:10;;;;;;;9.93;9.23;;;;;;;25.56;71.56;100186.16;5025656;28;20434;-80
2023/07/29 08:12:39;;;;;;;10.13;9.33;;;;;;;25.48;71.71;100190.47;5033451;28;20445;-82
2023/07/29 08:15:09;;;;;;;11.43;10.37;;;;;;;25.21;73.33;100187.06;5040247;28;20499;-80
2023/07/29 08:17:37;;;;;;;9.37;8.67;;;;;;;25.62;71.85;100187.63;5026131;28;20440;-79
2023/07/29 08:20:08;;;;;;;8.90;8.27;;;;;;;26.25;69.12;100181.66;5034155;28;20435;-80
2023/07/29 08:22:37;;;;;;;7.97;7.27;;;;;;;25.73;70.40;100194.53;5038627;28;20454;-80
2023/07/29 08:25:08;;;;;;;7.43;6.80;;;;;;;25.98;69.15;100181.91;5021405;28;20450;-81
2023/07/29 08:27:37;;;;;;;7.70;7.00;;;;;;;26.45;67.28;100188.56;5038974;28;20962;-81
2023/07/29 08:30:09;;;;;;;8.93;6.67;;;;;;;26.54;67.27;100192.16;5020914;28;20444;-81
2023/07/29 08:32:38;;;;;;;8.97;6.57;;;;;;;26.42;67.69;100178.13;5044960;28;20454;-80
2023/07/29 08:35:07;;;;;;;6.87;6.27;;;;;;;26.38;67.17;100177.13;5029007;28;20490;-83
2023/07/29 08:37:36;;;;;;;6.80;6.20;;;;;;;26.07;67.41;100176.38;5035218;28;20459;-82
2023/07/29 08:40:11;;;;;;;8.80;6.43;;;;;;;26.04;67.93;100175.09;5043793;28;20432;-82
2023/07/29 08:43:05;;;;;;;6.80;6.30;;;;;;;26.51;67.18;100172.56;5022508;28;20463;-81
2023/07/29 08:49:26;;;;;;;6.00;5.40;;;;;;;27.18;63.38;100168.13;5024553;28;20424;-80
2023/07/29 08:51:56;;;;;;;5.50;4.93;;;;;;;27.41;63.07;100170.69;5036021;28;20462;-80
2023/07/29 08:54:30;;;;;;;6.00;5.50;;;;;;;27.14;62.09;100175.50;5067020;28;20527;-85
2023/07/29 08:57:02;;;;;;;6.83;5.90;;;;;;;26.72;63.09;100168.00;5026029;28;20539;-83
2023/07/29 08:59:48;;;;;;;6.00;5.50;;;;;;;26.38;65.10;100169.59;5023399;28;20448;-83
2023/07/29 09:02:18;;;;;;;11.37;6.00;;;;;;;26.26;67.01;100163.91;5040881;28;20460;-84
2023/07/29 09:04:48;;;;;;;5.90;5.50;;;;;;;26.02;67.50;100160.72;5022715;28;20437;-82
2023/07/29 09:07:17;;;;;;;5.60;5.20;;;;;;;25.80;68.37;100169.94;5042118;28;20399;-83
2023/07/29 09:09:50;;;;;;;4.53;4.13;;;;;;;25.88;67.99;100168.34;5024406;28;20448;-83
2023/07/29 09:12:22;;;;;;;6.10;5.60;;;;;;;25.94;67.71;100167.06;5041969;28;20448;-82
2023/07/29 09:14:54;;;;;;;6.57;6.07;;;;;;;26.06;68.84;100163.66;5024163;28;20575;-82
2023/07/29 09:17:23;;;;;;;6.53;6.03;;;;;;;26.25;68.35;100162.25;5048409;28;20478;-85
2023/07/29 09:19:53;;;;;;;5.83;5.33;;;;;;;26.66;65.88;100158.22;5061419;28;20451;-83
2023/07/29 09:22:22;;;;;;;5.63;5.13;;;;;;;26.66;64.33;100152.66;5045257;28;20464;-80
2023/07/29 09:24:52;;;;;;;5.33;4.93;;;;;;;26.73;64.05;100147.41;5046577;28;20794;-80
2023/07/29 09:27:27;;;;;;;6.80;5.70;;;;;;;27.16;63.33;100142.63;5041779;28;20503;-82
2023/07/29 09:29:57;;;;;;;6.20;5.30;;;;;;;27.47;62.03;100149.91;5046559;28;20416;-82
2023/07/29 09:32:27;;;;;;;5.83;5.30;;;;;;;27.48;60.70;100146.81;5047944;28;20456;-80
2023/07/29 09:34:56;;;;;;;6.30;5.70;;;;;;;27.57;61.36;100147.63;5029502;28;20456;-82
2023/07/29 09:37:30;;;;;;;5.57;4.97;;;;;;;27.49;61.36;100131.00;5043864;28;20413;-82
2023/07/29 09:40:00;;;;;;;4.50;4.13;;;;;;;27.18;62.09;100134.00;5052906;28;20527;-82
2023/07/29 09:42:31;;;;;;;7.10;6.40;;;;;;;27.40;61.88;100128.19;5056357;28;20474;-80
2023/07/29 09:45:00;;;;;;;6.67;6.17;;;;;;;27.42;62.25;100128.69;5056141;28;20704;-79
2023/07/29 09:47:31;;;;;;;5.63;4.90;;;;;;;27.55;60.99;100124.06;5056480;28;20440;-81
2023/07/29 09:50:01;;;;;;;6.67;5.07;;;;;;;27.66;60.50;100125.34;5051758;28;20430;-78
2023/07/29 09:52:31;;;;;;;5.50;4.70;;;;;;;27.75;60.02;100123.31;5056425;28;20447;-78
2023/07/29 09:55:06;;;;;;;6.30;4.10;;;;;;;27.87;59.84;100122.63;5053797;28;20475;-85
2023/07/29 09:57:38;;;;;;;4.80;4.50;;;;;;;28.00;58.89;100108.47;5051918;28;20463;-79
2023/07/29 10:00:10;;;;;;;8.30;4.20;;;;;;;27.82;59.26;100117.25;5049462;28;20436;-82
2023/07/29 10:02:41;;;;;;;4.90;4.37;;;;;;;27.85;58.97;100106.25;5048430;28;20464;-81
2023/07/29 10:05:12;;;;;;;5.13;4.60;;;;;;;28.08;58.72;100110.34;5036996;28;20531;-84
2023/07/29 10:07:41;;;;;;;4.27;3.97;;;;;;;28.39;58.69;100106.41;5041896;28;20428;-84
2023/07/29 10:10:12;;;;;;;5.73;5.23;;;;;;;28.76;58.07;100107.41;5043460;28;20423;-84
2023/07/29 10:12:43;;;;;;;5.20;4.80;;;;;;;28.51;58.72;100100.91;5054692;28;20439;-82
2023/07/29 10:15:13;;;;;;;5.20;4.80;;;;;;;28.66;56.86;100091.13;5051856;28;20942;-83
2023/07/29 10:17:42;;;;;;;5.33;4.83;;;;;;;28.67;56.55;100101.91;5052290;28;20493;-83
2023/07/29 10:20:14;;;;;;;4.77;4.37;;;;;;;28.51;57.97;100100.91;5022538;28;20436;-83
2023/07/29 10:22:47;;;;;;;5.00;4.53;;;;;;;28.24;58.51;100101.44;5036603;28;20464;-82
2023/07/29 10:25:18;;;;;;;4.50;3.83;;;;;;;27.86;58.50;100088.44;5027580;28;20433;-84
2023/07/29 10:27:53;;;;;;;4.87;4.47;;;;;;;27.39;60.26;100086.88;5051534;28;20431;-83
2023/07/29 10:30:24;;;;;;;4.37;3.97;;;;;;;27.00;62.12;100086.03;5030134;28;20443;-84
2023/07/29 10:33:00;;;;;;;5.17;4.00;;;;;;;26.77;63.66;100071.50;5045336;28;20426;-83
2023/07/29 10:35:34;;;;;;;5.40;4.90;;;;;;;26.59;65.05;100063.53;5047875;28;20482;-81
2023/07/29 10:38:06;;;;;;;6.23;4.40;;;;;;;26.36;64.33;100060.13;5036161;28;20438;-80
2023/07/29 10:40:51;;;;;;;4.20;3.90;;;;;;;26.58;63.76;100053.56;5042529;28;20452;-82
2023/07/29 10:43:32;;;;;;;4.07;3.67;;;;;;;26.95;63.50;100054.84;5055814;28;20444;-81
2023/07/29 10:46:18;;;;;;;6.03;4.00;;;;;;;27.00;62.33;100041.59;5047902;28;20482;-85
2023/07/29 10:48:54;;;;;;;3.67;3.33;;;;;;;27.38;61.67;100036.03;5022405;28;20439;-84
2023/07/29 10:51:29;;;;;;;3.80;3.50;;;;;;;27.43;60.08;100029.47;5042760;28;20447;-84
2023/07/29 10:54:08;;;;;;;3.80;3.50;;;;;;;27.00;60.38;100019.41;5047912;28;20804;-83
2023/07/29 10:56:38;;;;;;;4.50;3.90;;;;;;;26.93;61.45;100024.63;5044365;28;20468;-80
2023/07/29 10:59:34;;;;;;;3.70;3.40;;;;;;;26.48;62.75;100028.97;5054013;28;20459;-83
2023/07/29 11:02:12;;;;;;;3.40;3.10;;;;;;;25.76;65.27;100032.34;5022397;28;20467;-83
2023/07/29 11:08:31;;;;;;;3.80;3.50;;;;;;;24.78;71.84;100065.81;5043664;28;20428;-83
2023/07/29 11:11:06;;;;;;;3.00;2.80;;;;;;;24.43;72.08;100070.28;5043573;28;20474;-83
2023/07/29 11:13:36;;;;;;;3.37;3.07;;;;;;;23.58;76.34;100073.81;5035252;28;20455;-81
2023/07/29 11:20:36;;;;;;;9.23;3.97;;;;;;;20.92;100.00;100114.09;5043448;28;20406;-83
2023/07/29 11:23:06;;;;;;;5.90;2.37;;;;;;;20.02;100.00;100094.44;5044052;28;20880;-82
2023/07/29 11:25:35;;;;;;;5.87;1.83;;;;;;;19.63;100.00;100071.56;5042020;28;20434;-83
2023/07/29 11:28:07;;;;;;;3.97;3.30;;;;;;;19.56;100.00;100077.34;5036826;28;20410;-83
2023/07/29 11:31:23;;;;;;;5.73;2.67;;;;;;;19.52;100.00;100090.81;5036964;28;20429;-84
2023/07/29 11:33:52;;;;;;;6.17;2.20;;;;;;;19.64;100.00;100089.69;5021019;28;20414;-84
2023/07/29 11:36:24;;;;;;;6.10;2.43;;;;;;;19.76;100.00;100082.75;5021859;28;20470;-84
2023/07/29 11:38:53;;;;;;;7.50;2.67;;;;;;;19.89;100.00;100082.16;5041547;28;20399;-84
2023/07/29 11:41:23;;;;;;;11.23;6.40;;;;;;;20.18;100.00;100073.19;5047665;28;20437;-82
2023/07/29 11:43:52;;;;;;;2.47;1.70;;;;;;;20.50;100.00;100067.19;5051163;28;20386;-83